createdAt,value
2023-04-20T00:01:24.035Z,96781.11
2023-04-20T00:03:52.835Z,96784.86
2023-04-20T00:06:22.084Z,96784.31
2023-04-20T00:08:50.126Z,96784.31
2023-04-20T00:11:17.956Z,96786.20
2023-04-20T00:13:46.138Z,96777.77
2023-04-20T00:16:14.122Z,96776.06
2023-04-20T00:18:42.292Z,96775.89
2023-04-20T00:21:10.162Z,96777.66
2023-04-20T00:23:38.139Z,96772.17
2023-04-20T00:26:06.010Z,96770.42
2023-04-20T00:28:33.937Z,96770.56
2023-04-20T00:31:01.900Z,96768.20
2023-04-20T00:33:30.134Z,96765.63
2023-04-20T00:35:58.101Z,96764.31
2023-04-20T00:38:26.247Z,96761.43
2023-04-20T00:40:57.022Z,96759.20
2023-04-20T00:43:24.905Z,96757.83
2023-04-20T00:45:52.923Z,96755.10
2023-04-20T00:48:21.172Z,96750.99
2023-04-20T00:50:50.445Z,96751.13
2023-04-20T00:53:18.834Z,96752.01
2023-04-20T00:55:47.068Z,96752.17
2023-04-20T00:58:14.996Z,96752.63
2023-04-20T01:00:42.854Z,96753.39
2023-04-20T01:03:11.464Z,96754.79
2023-04-20T01:05:39.620Z,96752.89
2023-04-20T01:08:07.610Z,96756.80
2023-04-20T01:10:36.394Z,96759.41
2023-04-20T01:13:08.150Z,96762.15
2023-04-20T01:15:36.174Z,96762.48
2023-04-20T01:18:06.124Z,96764.02
2023-04-20T01:20:34.694Z,96764.72
2023-04-20T01:23:02.715Z,96764.32
2023-04-20T01:25:31.296Z,96765.16
2023-04-20T01:27:59.275Z,96760.12
2023-04-20T01:30:27.215Z,96758.89
2023-04-20T01:32:55.246Z,96760.11
2023-04-20T01:35:24.028Z,96757.36
2023-04-20T01:37:52.086Z,96759.45
2023-04-20T01:40:19.972Z,96753.10
2023-04-20T01:42:47.920Z,96755.11
2023-04-20T01:45:16.700Z,96754.55
2023-04-20T01:47:44.917Z,96757.84
2023-04-20T01:50:13.086Z,96757.83
2023-04-20T01:52:40.890Z,96758.29
2023-04-20T01:55:10.108Z,96757.07
2023-04-20T01:57:38.148Z,96756.73
2023-04-20T02:00:06.638Z,96757.70
2023-04-20T02:02:42.307Z,96757.28
2023-04-20T02:05:10.556Z,96761.06
2023-04-20T02:07:38.429Z,96759.13
2023-04-20T02:10:07.929Z,96756.69
2023-04-20T02:12:36.731Z,96757.48
2023-04-20T02:15:06.244Z,96756.56
2023-04-20T02:17:34.264Z,96758.55
2023-04-20T02:20:02.225Z,96762.08
2023-04-20T02:22:30.163Z,96761.05
2023-04-20T02:24:58.285Z,96758.79
2023-04-20T02:27:26.312Z,96759.25
2023-04-20T02:29:54.695Z,96759.91
2023-04-20T02:32:22.860Z,96757.83
2023-04-20T02:34:51.046Z,96760.33
2023-04-20T02:37:19.129Z,96761.14
2023-04-20T02:39:47.102Z,96758.83
2023-04-20T02:42:14.963Z,96759.80
2023-04-20T02:44:43.881Z,96758.89
2023-04-20T02:47:12.548Z,96760.59
2023-04-20T02:49:41.081Z,96759.89
2023-04-20T02:52:09.204Z,96756.20
2023-04-20T02:54:37.520Z,96757.19
2023-04-20T02:57:05.681Z,96756.84
2023-04-20T02:59:33.974Z,96755.98
2023-04-20T03:02:06.945Z,96758.26
2023-04-20T03:04:35.530Z,96761.52
2023-04-20T03:07:09.575Z,96758.30
2023-04-20T03:09:38.966Z,96761.77
2023-04-20T03:12:36.113Z,96764.39
2023-04-20T03:15:36.256Z,96768.19
2023-04-20T03:18:15.716Z,96768.88
2023-04-20T03:20:43.934Z,96770.61
2023-04-20T03:23:12.818Z,96774.04
2023-04-20T03:25:40.893Z,96774.62
2023-04-20T03:28:28.431Z,96778.95
2023-04-20T03:30:56.487Z,96776.29
2023-04-20T03:33:24.570Z,96779.34
2023-04-20T03:35:52.642Z,96778.46
2023-04-20T03:38:21.355Z,96776.58
2023-04-20T03:40:49.724Z,96774.80
2023-04-20T03:43:17.904Z,96772.00
2023-04-20T03:45:46.668Z,96774.03
2023-04-20T03:48:15.335Z,96775.16
2023-04-20T03:50:43.561Z,96776.35
2023-04-20T03:53:11.742Z,96775.94
2023-04-20T03:55:40.025Z,96773.02
2023-04-20T03:58:09.525Z,96771.21
2023-04-20T04:01:09.646Z,96769.94
2023-04-20T04:03:40.197Z,96768.98
2023-04-20T04:06:10.698Z,96772.84
2023-04-20T04:08:38.872Z,96773.75
2023-04-20T04:11:07.160Z,96786.70
2023-04-20T04:13:35.546Z,96793.59
2023-04-20T04:16:06.485Z,96799.33
2023-04-20T04:18:35.402Z,96803.83
2023-04-20T04:21:08.883Z,96802.64
2023-04-20T04:23:39.816Z,96803.83
2023-04-20T04:26:29.301Z,96802.83
2023-04-20T04:28:58.178Z,96806.58
2023-04-20T04:31:27.697Z,96801.60
2023-04-20T04:33:58.817Z,96801.23
2023-04-20T04:36:32.244Z,96801.20
2023-04-20T04:39:00.839Z,96800.84
2023-04-20T04:41:29.107Z,96801.65
2023-04-20T04:44:06.205Z,96803.38
2023-04-20T04:46:36.880Z,96807.98
2023-04-20T04:49:05.878Z,96809.17
2023-04-20T04:51:34.311Z,96810.71
2023-04-20T04:54:02.382Z,96805.72
2023-04-20T04:56:30.358Z,96804.29
2023-04-20T04:58:58.333Z,96806.33
2023-04-20T05:01:26.535Z,96807.67
2023-04-20T05:03:54.606Z,96808.67
2023-04-20T05:06:22.865Z,96808.10
2023-04-20T05:08:50.734Z,96802.91
2023-04-20T05:11:18.815Z,96796.66
2023-04-20T05:13:48.624Z,96794.58
2023-04-20T05:16:16.624Z,96790.22
2023-04-20T05:18:44.580Z,96791.87
2023-04-20T05:21:12.968Z,96798.98
2023-04-20T05:23:40.913Z,96804.59
2023-04-20T05:26:08.809Z,96802.55
2023-04-20T05:28:36.962Z,96806.34
2023-04-20T05:31:05.160Z,96804.40
2023-04-20T05:33:32.977Z,96807.27
2023-04-20T05:36:01.014Z,96801.72
2023-04-20T05:38:29.097Z,96808.30
2023-04-20T05:40:57.057Z,96806.33
2023-04-20T05:43:25.253Z,96803.34
2023-04-20T05:45:53.112Z,96798.00
2023-04-20T05:48:21.616Z,96798.81
2023-04-20T05:50:49.770Z,96798.17
2023-04-20T05:53:17.825Z,96797.63
2023-04-20T05:55:45.713Z,96800.19
2023-04-20T05:58:14.102Z,96801.02
2023-04-20T06:00:42.172Z,96802.31
2023-04-20T06:03:10.363Z,96800.85
2023-04-20T06:05:38.778Z,96797.16
2023-04-20T06:08:06.775Z,96798.03
2023-04-20T06:10:34.895Z,96799.30
2023-04-20T06:13:02.872Z,96803.12
2023-04-20T06:15:30.944Z,96804.00
2023-04-20T06:17:59.094Z,96808.68
2023-04-20T06:20:27.206Z,96814.02
2023-04-20T06:22:55.687Z,96814.08
2023-04-20T06:25:23.777Z,96813.71
2023-04-20T06:27:52.739Z,96815.94
2023-04-20T06:30:21.071Z,96811.64
2023-04-20T06:32:49.082Z,96811.98
2023-04-20T06:35:17.169Z,96810.09
2023-04-20T06:37:45.274Z,96805.95
2023-04-20T06:40:14.324Z,96806.27
2023-04-20T06:42:44.090Z,96803.98
2023-04-20T06:45:12.059Z,96799.98
2023-04-20T06:47:40.164Z,96804.02
2023-04-20T06:50:10.131Z,96802.77
2023-04-20T06:52:41.642Z,96806.93
2023-04-20T06:55:10.809Z,96801.48
2023-04-20T06:57:39.622Z,96809.50
2023-04-20T07:00:09.415Z,96810.44
2023-04-20T07:02:44.950Z,96808.14
2023-04-20T07:05:14.068Z,96805.97
2023-04-20T07:07:42.553Z,96804.69
2023-04-20T07:10:11.687Z,96804.80
2023-04-20T07:12:42.654Z,96807.67
2023-04-20T07:15:11.977Z,96807.75
2023-04-20T07:17:40.050Z,96811.67
2023-04-20T07:20:09.087Z,96808.33
2023-04-20T07:22:40.425Z,96806.66
2023-04-20T07:25:09.425Z,96805.04
2023-04-20T07:27:38.625Z,96802.88
2023-04-20T07:30:07.724Z,96805.54
2023-04-20T07:32:36.327Z,96804.29
2023-04-20T07:35:04.796Z,96808.39
2023-04-20T07:37:33.438Z,96811.92
2023-04-20T07:40:02.299Z,96810.67
2023-04-20T07:42:32.101Z,96811.36
2023-04-20T07:45:00.282Z,96812.83
2023-04-20T07:47:28.286Z,96811.54
2023-04-20T07:49:57.763Z,96811.99
2023-04-20T07:52:26.342Z,96815.04
2023-04-20T07:54:56.979Z,96812.60
2023-04-20T07:57:25.796Z,96813.91
2023-04-20T07:59:53.768Z,96815.23
2023-04-20T08:02:21.790Z,96811.33
2023-04-20T08:04:50.253Z,96807.12
2023-04-20T08:07:19.013Z,96804.99
2023-04-20T08:09:47.195Z,96805.44
2023-04-20T08:12:15.358Z,96800.19
2023-04-20T08:14:43.341Z,96800.71
2023-04-20T08:17:11.617Z,96796.34
2023-04-20T08:19:40.038Z,96798.28
2023-04-20T08:22:12.546Z,96797.64
2023-04-20T08:24:40.864Z,96801.70
2023-04-20T08:27:09.138Z,96801.70
2023-04-20T08:29:38.453Z,96799.84
2023-04-20T08:32:09.441Z,96797.44
2023-04-20T08:34:37.572Z,96797.16
2023-04-20T08:37:06.258Z,96800.80
2023-04-20T08:39:34.438Z,96798.56
2023-04-20T08:42:03.441Z,96800.34
2023-04-20T08:44:31.610Z,96795.75
2023-04-20T08:47:00.100Z,96792.14
2023-04-20T08:49:32.055Z,96788.73
2023-04-20T08:52:00.054Z,96789.63
2023-04-20T08:54:28.028Z,96789.14
2023-04-20T08:56:56.918Z,96779.63
2023-04-20T08:59:24.980Z,96780.17
2023-04-20T09:01:52.902Z,96784.08
2023-04-20T09:04:25.775Z,96781.40
2023-04-20T09:06:55.872Z,96782.48
2023-04-20T09:09:25.482Z,96783.92
2023-04-20T09:12:00.657Z,96780.91
2023-04-20T09:14:28.680Z,96784.06
2023-04-20T09:17:02.285Z,96783.41
2023-04-20T09:19:30.976Z,96781.91
2023-04-20T09:22:00.587Z,96779.90
2023-04-20T09:24:32.871Z,96778.80
2023-04-20T09:27:03.704Z,96778.70
2023-04-20T09:29:32.296Z,96773.63
2023-04-20T09:32:00.618Z,96774.14
2023-04-20T09:34:28.848Z,96777.89
2023-04-20T09:36:57.747Z,96775.44
2023-04-20T09:39:27.087Z,96774.98
2023-04-20T09:42:01.536Z,96774.63
2023-04-20T09:44:29.751Z,96769.58
2023-04-20T09:46:58.547Z,96766.43
2023-04-20T09:49:26.818Z,96769.55
2023-04-20T09:51:54.735Z,96768.70
2023-04-20T09:54:23.286Z,96770.59
2023-04-20T09:56:52.075Z,96771.69
2023-04-20T09:59:21.585Z,96763.87
2023-04-20T10:01:49.834Z,96764.94
2023-04-20T10:04:18.468Z,96762.00
2023-04-20T10:06:54.920Z,96753.69
2023-04-20T10:09:24.744Z,96748.48
2023-04-20T10:11:54.549Z,96748.45
2023-04-20T10:14:25.117Z,96747.41
2023-04-20T10:17:00.837Z,96746.30
2023-04-20T10:19:45.084Z,96749.04
2023-04-20T10:22:14.696Z,96744.45
2023-04-20T10:24:42.561Z,96747.84
2023-04-20T10:27:20.576Z,96751.10
2023-04-20T10:29:48.765Z,96750.41
2023-04-20T10:32:27.026Z,96746.25
2023-04-20T10:35:05.297Z,96744.88
2023-04-20T10:37:33.560Z,96745.55
2023-04-20T10:40:02.035Z,96743.89
2023-04-20T10:42:30.006Z,96747.30
2023-04-20T10:44:58.078Z,96746.70
2023-04-20T10:47:34.321Z,96741.44
2023-04-20T10:50:07.901Z,96744.14
2023-04-20T10:52:37.077Z,96743.55
2023-04-20T10:55:07.118Z,96739.56
2023-04-20T10:57:36.276Z,96743.73
2023-04-20T11:00:20.552Z,96739.95
2023-04-20T11:02:50.349Z,96742.09
2023-04-20T11:05:19.777Z,96739.30
2023-04-20T11:07:57.755Z,96741.93
2023-04-20T11:10:37.688Z,96736.62
2023-04-20T11:13:05.773Z,96737.64
2023-04-20T11:15:34.668Z,96736.12
2023-04-20T11:18:09.567Z,96735.85
2023-04-20T11:20:38.098Z,96739.73
2023-04-20T11:23:06.986Z,96737.41
2023-04-20T11:25:34.968Z,96739.33
2023-04-20T11:28:09.123Z,96732.48
2023-04-20T11:30:41.511Z,96733.61
2023-04-20T11:33:10.340Z,96731.27
2023-04-20T11:35:39.851Z,96729.13
2023-04-20T11:38:08.541Z,96731.44
2023-04-20T11:40:36.505Z,96728.27
2023-04-20T11:43:04.745Z,96729.91
2023-04-20T11:45:36.772Z,96730.04
2023-04-20T11:48:05.865Z,96730.29
2023-04-20T11:50:34.039Z,96730.42
2023-04-20T11:53:02.543Z,96732.06
2023-04-20T11:55:30.692Z,96732.30
2023-04-20T11:57:58.661Z,96729.31
2023-04-20T12:00:26.545Z,96728.68
2023-04-20T12:02:54.904Z,96729.96
2023-04-20T12:05:23.066Z,96729.10
2023-04-20T12:07:51.163Z,96727.06
2023-04-20T12:10:19.472Z,96723.90
2023-04-20T12:12:47.301Z,96721.09
2023-04-20T12:15:15.225Z,96724.02
2023-04-20T12:17:43.415Z,96722.98
2023-04-20T12:20:12.527Z,96725.08
2023-04-20T12:22:41.171Z,96722.71
2023-04-20T12:25:09.347Z,96718.58
2023-04-20T12:27:37.730Z,96722.73
2023-04-20T12:30:06.090Z,96725.20
2023-04-20T12:32:33.957Z,96725.73
2023-04-20T12:35:01.964Z,96726.11
2023-04-20T12:37:29.853Z,96724.95
2023-04-20T12:39:57.921Z,96723.59
2023-04-20T12:42:25.990Z,96722.77
2023-04-20T12:44:54.513Z,96722.78
2023-04-20T12:47:22.450Z,96721.84
2023-04-20T12:49:50.316Z,96719.05
2023-04-20T12:52:18.291Z,96716.74
2023-04-20T12:54:46.690Z,96716.72
2023-04-20T12:57:14.761Z,96719.19
2023-04-20T12:59:43.150Z,96714.00
2023-04-20T13:02:11.381Z,96715.23
2023-04-20T13:04:39.757Z,96716.05
2023-04-20T13:07:07.773Z,96714.98
2023-04-20T13:09:35.623Z,96711.86
2023-04-20T13:12:04.038Z,96708.45
2023-04-20T13:14:32.410Z,96711.89
2023-04-20T13:17:02.167Z,96709.88
2023-04-20T13:19:30.416Z,96713.39
2023-04-20T13:21:58.377Z,96710.54
2023-04-20T13:24:26.246Z,96713.85
2023-04-20T13:26:58.550Z,96710.95
2023-04-20T13:29:26.509Z,96712.02
2023-04-20T13:31:54.411Z,96713.08
2023-04-20T13:34:22.779Z,96715.58
2023-04-20T13:36:51.247Z,96713.76
2023-04-20T13:39:20.651Z,96716.98
2023-04-20T13:41:51.711Z,96720.86
2023-04-20T13:44:20.363Z,96718.91
2023-04-20T13:46:48.561Z,96721.38
2023-04-20T13:49:17.153Z,96720.63
2023-04-20T13:51:44.980Z,96720.54
2023-04-20T13:54:12.811Z,96721.96
2023-04-20T13:56:40.758Z,96720.16
2023-04-20T13:59:08.895Z,96723.57
2023-04-20T14:01:37.237Z,96722.61
2023-04-20T14:04:05.474Z,96716.45
2023-04-20T14:06:33.581Z,96715.64
2023-04-20T14:09:01.570Z,96711.48
2023-04-20T14:11:29.637Z,96713.45
2023-04-20T14:13:57.524Z,96710.23
2023-04-20T14:16:29.044Z,96705.90
2023-04-20T14:18:57.449Z,96706.14
2023-04-20T14:21:25.284Z,96706.35
2023-04-20T14:23:54.838Z,96702.56
2023-04-20T14:26:22.744Z,96703.31
2023-04-20T14:28:52.716Z,96709.24
2023-04-20T14:31:20.757Z,96704.94
2023-04-20T14:33:48.779Z,96711.06
2023-04-20T14:36:16.847Z,96710.22
2023-04-20T14:38:45.023Z,96716.00
2023-04-20T14:41:13.112Z,96713.41
2023-04-20T14:43:41.397Z,96712.40
2023-04-20T14:46:09.374Z,96710.70
2023-04-20T14:48:38.360Z,96713.11
2023-04-20T14:51:06.452Z,96712.98
2023-04-20T14:53:34.272Z,96711.23
2023-04-20T14:56:02.283Z,96712.76
2023-04-20T14:58:30.359Z,96714.81
2023-04-20T15:00:58.328Z,96713.61
2023-04-20T15:03:26.490Z,96711.85
2023-04-20T15:05:59.512Z,96713.20
2023-04-20T15:08:27.954Z,96714.73
2023-04-20T15:10:58.924Z,96711.27
2023-04-20T15:13:27.056Z,96715.77
2023-04-20T15:15:55.572Z,96717.59
2023-04-20T15:18:23.870Z,96716.67
2023-04-20T15:20:55.138Z,96718.16
2023-04-20T15:23:23.397Z,96715.61
2023-04-20T15:25:52.416Z,96722.33
2023-04-20T15:28:20.325Z,96720.69
2023-04-20T15:30:48.218Z,96723.65
2023-04-20T15:33:16.131Z,96721.63
2023-04-20T15:35:44.198Z,96719.46
2023-04-20T15:38:12.172Z,96720.16
2023-04-20T15:40:40.163Z,96720.65
2023-04-20T15:43:08.206Z,96714.60
2023-04-20T15:45:36.625Z,96719.11
2023-04-20T15:48:04.674Z,96720.70
2023-04-20T15:50:32.697Z,96722.98
2023-04-20T15:53:00.973Z,96724.91
2023-04-20T15:55:34.576Z,96726.71
2023-04-20T15:58:02.577Z,96726.73
2023-04-20T16:00:31.500Z,96727.73
2023-04-20T16:03:01.848Z,96726.90
2023-04-20T16:05:30.004Z,96725.30
2023-04-20T16:07:58.016Z,96724.33
2023-04-20T16:10:27.693Z,96725.06
2023-04-20T16:12:56.364Z,96724.29
2023-04-20T16:15:24.797Z,96727.58
2023-04-20T16:17:53.343Z,96723.35
2023-04-20T16:20:21.565Z,96725.45
2023-04-20T16:22:49.505Z,96726.98
2023-04-20T16:25:22.852Z,96726.72
2023-04-20T16:27:51.807Z,96727.29
2023-04-20T16:30:19.956Z,96730.80
2023-04-20T16:32:47.893Z,96728.70
2023-04-20T16:35:15.833Z,96728.58
2023-04-20T16:37:44.077Z,96729.69
2023-04-20T16:40:12.054Z,96729.95
2023-04-20T16:42:39.898Z,96731.63
2023-04-20T16:45:08.153Z,96733.86
2023-04-20T16:47:36.082Z,96735.49
2023-04-20T16:50:07.257Z,96738.17
2023-04-20T16:52:35.584Z,96738.29
2023-04-20T16:55:03.617Z,96738.38
2023-04-20T16:57:32.307Z,96738.09
2023-04-20T17:00:00.611Z,96745.48
2023-04-20T17:02:32.941Z,96745.21
2023-04-20T17:05:01.265Z,96744.14
2023-04-20T17:07:29.539Z,96749.45
2023-04-20T17:09:57.840Z,96751.17
2023-04-20T17:12:26.116Z,96751.77
2023-04-20T17:14:54.844Z,96753.23
2023-04-20T17:17:23.180Z,96751.21
2023-04-20T17:19:51.036Z,96752.45
2023-04-20T17:22:18.986Z,96752.80
2023-04-20T17:24:46.988Z,96753.59
2023-04-20T17:27:16.186Z,96755.02
2023-04-20T17:29:45.878Z,96753.52
2023-04-20T17:32:14.191Z,96756.70
2023-04-20T17:34:45.170Z,96758.13
2023-04-20T17:37:13.149Z,96762.83
2023-04-20T17:39:41.123Z,96762.61
2023-04-20T17:42:10.158Z,96766.70
2023-04-20T17:44:39.477Z,96767.34
2023-04-20T17:47:09.415Z,96767.11
2023-04-20T17:49:37.506Z,96767.78
2023-04-20T17:52:05.484Z,96768.97
2023-04-20T17:54:34.069Z,96768.48
2023-04-20T17:57:01.921Z,96771.66
2023-04-20T17:59:31.055Z,96776.02
2023-04-20T18:01:59.743Z,96777.20
2023-04-20T18:04:27.946Z,96777.77
2023-04-20T18:06:56.976Z,96778.48
2023-04-20T18:09:24.894Z,96776.66
2023-04-20T18:11:53.151Z,96777.89
2023-04-20T18:14:21.455Z,96777.23
2023-04-20T18:16:54.803Z,96776.72
2023-04-20T18:19:22.871Z,96777.13
2023-04-20T18:21:53.506Z,96781.30
2023-04-20T18:24:21.903Z,96782.80
2023-04-20T18:26:49.851Z,96781.59
2023-04-20T18:29:17.827Z,96783.04
2023-04-20T18:31:46.681Z,96779.61
2023-04-20T18:34:15.165Z,96782.73
2023-04-20T18:36:43.006Z,96782.77
2023-04-20T18:39:11.404Z,96785.22
2023-04-20T18:41:39.218Z,96789.84
2023-04-20T18:44:07.469Z,96793.47
2023-04-20T18:46:35.495Z,96795.54
2023-04-20T18:49:03.445Z,96797.77
2023-04-20T18:51:33.154Z,96799.27
2023-04-20T18:54:01.265Z,96794.88
2023-04-20T18:56:29.258Z,96796.39
2023-04-20T18:58:59.638Z,96797.06
2023-04-20T19:01:27.670Z,96797.13
2023-04-20T19:03:55.983Z,96800.61
2023-04-20T19:06:24.070Z,96800.42
2023-04-20T19:08:51.948Z,96805.48
2023-04-20T19:11:19.951Z,96803.70
2023-04-20T19:13:47.989Z,96806.48
2023-04-20T19:16:16.091Z,96812.02
2023-04-20T19:18:44.317Z,96808.85
2023-04-20T19:21:12.886Z,96803.45
2023-04-20T19:23:40.716Z,96807.40
2023-04-20T19:26:08.612Z,96808.18
2023-04-20T19:28:36.792Z,96810.21
2023-04-20T19:31:05.788Z,96809.19
2023-04-20T19:33:33.762Z,96810.73
2023-04-20T19:36:03.607Z,96812.08
2023-04-20T19:38:34.725Z,96812.48
2023-04-20T19:41:02.819Z,96819.19
2023-04-20T19:43:32.099Z,96817.97
2023-04-20T19:46:00.239Z,96821.69
2023-04-20T19:48:28.353Z,96822.48
2023-04-20T19:50:57.764Z,96823.44
2023-04-20T19:53:26.150Z,96824.62
2023-04-20T19:55:54.062Z,96823.52
2023-04-20T19:58:22.069Z,96821.86
2023-04-20T20:00:49.915Z,96823.67
2023-04-20T20:03:17.959Z,96822.59
2023-04-20T20:05:46.130Z,96825.41
2023-04-20T20:08:14.503Z,96822.79
2023-04-20T20:10:42.581Z,96825.17
2023-04-20T20:13:10.549Z,96823.60
2023-04-20T20:15:38.548Z,96823.27
2023-04-20T20:18:06.853Z,96821.63
2023-04-20T20:20:34.976Z,96827.30
2023-04-20T20:23:03.047Z,96825.73
2023-04-20T20:25:30.913Z,96827.77
2023-04-20T20:27:59.420Z,96825.68
2023-04-20T20:30:27.331Z,96825.95
2023-04-20T20:32:55.522Z,96826.55
2023-04-20T20:35:23.986Z,96826.16
2023-04-20T20:37:54.480Z,96823.02
2023-04-20T20:40:22.472Z,96827.45
2023-04-20T20:42:50.638Z,96824.61
2023-04-20T20:45:18.624Z,96828.25
2023-04-20T20:47:46.543Z,96824.55
2023-04-20T20:50:15.696Z,96824.02
2023-04-20T20:52:43.807Z,96822.94
2023-04-20T20:55:11.742Z,96822.60
2023-04-20T20:57:40.125Z,96825.98
2023-04-20T21:00:10.033Z,96828.16
2023-04-20T21:02:38.420Z,96829.84
2023-04-20T21:05:06.813Z,96831.64
2023-04-20T21:07:34.682Z,96835.34
2023-04-20T21:10:02.963Z,96832.95
2023-04-20T21:12:30.973Z,96835.66
2023-04-20T21:14:58.905Z,96836.98
2023-04-20T21:17:27.139Z,96838.98
2023-04-20T21:19:55.188Z,96840.50
2023-04-20T21:22:23.439Z,96843.03
2023-04-20T21:24:51.425Z,96842.98
2023-04-20T21:27:19.587Z,96841.89
2023-04-20T21:29:47.514Z,96843.54
2023-04-20T21:32:15.827Z,96841.17
2023-04-20T21:34:43.703Z,96843.15
2023-04-20T21:37:11.688Z,96845.98
2023-04-20T21:39:39.579Z,96844.71
2023-04-20T21:42:07.765Z,96844.46
2023-04-20T21:44:36.133Z,96841.60
2023-04-20T21:47:04.037Z,96837.02
2023-04-20T21:49:31.980Z,96837.45
2023-04-20T21:51:59.882Z,96837.39
2023-04-20T21:54:28.026Z,96838.48
2023-04-20T21:56:55.998Z,96836.33
2023-04-20T21:59:24.082Z,96835.19
2023-04-20T22:01:52.049Z,96829.16
2023-04-20T22:04:20.509Z,96832.54
2023-04-20T22:06:49.017Z,96832.32
2023-04-20T22:09:18.199Z,96828.79
2023-04-20T22:11:46.603Z,96831.59
2023-04-20T22:14:14.452Z,96833.82
2023-04-20T22:16:42.545Z,96830.71
2023-04-20T22:19:10.394Z,96830.77
2023-04-20T22:21:38.527Z,96828.33
2023-04-20T22:24:06.883Z,96830.77
2023-04-20T22:26:34.965Z,96834.34
2023-04-20T22:29:03.056Z,96832.27
2023-04-20T22:31:31.201Z,96834.71
2023-04-20T22:33:59.187Z,96833.35
2023-04-20T22:36:28.297Z,96831.48
2023-04-20T22:38:56.436Z,96829.46
2023-04-20T22:41:24.338Z,96828.94
2023-04-20T22:43:52.139Z,96830.84
2023-04-20T22:46:20.026Z,96833.80
2023-04-20T22:48:49.210Z,96831.73
2023-04-20T22:51:17.399Z,96834.48
2023-04-20T22:53:45.340Z,96837.42
2023-04-20T22:56:13.769Z,96836.60
2023-04-20T22:58:41.676Z,96831.46
2023-04-20T23:01:09.611Z,96834.62
2023-04-20T23:03:37.827Z,96832.95
2023-04-20T23:06:07.464Z,96832.64
2023-04-20T23:08:35.444Z,96830.57
2023-04-20T23:11:04.836Z,96827.52
2023-04-20T23:13:33.328Z,96829.21
2023-04-20T23:16:01.360Z,96835.84
2023-04-20T23:18:29.782Z,96838.42
2023-04-20T23:20:57.758Z,96836.34
2023-04-20T23:23:25.747Z,96839.85
2023-04-20T23:25:53.713Z,96832.83
2023-04-20T23:28:21.680Z,96834.52
2023-04-20T23:30:49.873Z,96833.85
2023-04-20T23:33:17.938Z,96834.39
2023-04-20T23:35:45.816Z,96835.48
2023-04-20T23:38:14.398Z,96836.27
2023-04-20T23:40:42.475Z,96835.06
2023-04-20T23:43:10.660Z,96832.67
2023-04-20T23:45:38.638Z,96831.51
2023-04-20T23:48:06.865Z,96830.84
2023-04-20T23:50:37.074Z,96827.57
2023-04-20T23:53:06.071Z,96834.61
2023-04-20T23:55:34.548Z,96830.81
2023-04-20T23:58:02.486Z,96831.55
